Mid Ohio Valley Regional Airport Parkersburg US
ICAO: KPKB
IATA: PKB
Category: Medium
Scheduled Services: Yes

Elevation: 858 ft
TransAlt. 18000 ft.

Airport Communications:
ATIS:124.35
INDIANAPOLIS CNTR:125.55
CTAF:123.7
GND:121.7
PARKERSBURG TWR:123.7
UNICOM:122.95

KPKB Zoom In..

If you have problems with the map follow the link
https://www.worldairports.se/pages/airport.php?
ICAO=KPKB

Runways:

(A) RW 03 length 7240 ft width 150 ft
ILS 110.70 / hdg 29

(B) RW 10 length 4002 ft width 150 ft
---- / hdg 102

(C) RW 21 length 7240 ft width 150 ft
---- / hdg 209

(D) RW 28 length 4002 ft width 150 ft
---- / hdg 282

Location; KPKB
Day. 18 / Time. 11.58 Zulu
* Altimeter: 30.20
* Temperature: 00° c. 32°f.
* Wind from: 120° Speed 04 kn.
Dewpoint: -03° c.
Visibility: 7 Statute Miles.
Clouds: Overcast 5500 ft.

KPKB 181158Z 12004KT 7SM -FZRA OVC055 00/M03 A3020 RMK AO2 P0001 I1000 T00001033 $


Wind From 120°
Speed 04 kn.

 
 
jpsmedia worldairports.se 2020   terms of use